Time;durP1;ratioP1;P1;durP2;ratioP2;P2;SDS_P1;SDS_P2;PMS_P1;PMS_P2;Temp;Humidity;BMP_temperature;BMP_pressure;BME280_temperature;BME280_humidity;BME280_pressure;Samples;Min_cycle;Max_cycle;Signal;HPM_P1;HPM_P2
2022/12/08 04:45:41;;;;;;;36.03;18.42;;;;;;;0.03;100.00;100301.72;5309514;33;32296;-84
2022/12/08 04:48:44;;;;;;;37.50;19.80;;;;;;;0.02;100.00;100300.03;5324947;33;33796;-84
2022/12/08 04:51:47;;;;;;;37.15;19.70;;;;;;;0.03;100.00;100292.00;5328194;33;34933;-84
2022/12/08 04:54:50;;;;;;;40.17;20.02;;;;;;;0.03;100.00;100292.00;5327974;33;34176;-84
2022/12/08 04:57:53;;;;;;;37.58;18.50;;;;;;;-0.02;100.00;100292.34;5329969;33;33768;-84
2022/12/08 05:00:55;;;;;;;38.47;19.85;;;;;;;-0.03;100.00;100295.06;5326672;33;34154;-84
2022/12/08 05:03:58;;;;;;;46.13;21.30;;;;;;;-0.05;100.00;100292.56;5323484;33;34658;-84
2022/12/08 05:07:01;;;;;;;39.72;19.77;;;;;;;-0.07;100.00;100294.47;5316445;33;34099;-84
2022/12/08 05:10:04;;;;;;;39.45;20.15;;;;;;;-0.08;100.00;100290.12;5324196;33;34764;-84
2022/12/08 05:13:08;;;;;;;42.88;21.12;;;;;;;-0.05;100.00;100304.94;5324348;33;33560;-84
2022/12/08 05:16:13;;;;;;;38.92;19.48;;;;;;;-0.01;100.00;100296.66;5324983;33;33947;-84
2022/12/08 05:19:16;;;;;;;38.55;19.73;;;;;;;-0.03;100.00;100298.59;5324333;33;35359;-83
2022/12/08 05:22:19;;;;;;;41.47;20.58;;;;;;;0.01;100.00;100301.84;5324353;33;33593;-83
2022/12/08 05:25:22;;;;;;;37.20;18.42;;;;;;;0.07;100.00;100304.03;5324213;33;34020;-83
2022/12/08 05:28:25;;;;;;;38.13;19.58;;;;;;;0.10;100.00;100303.81;5324545;33;34412;-83
2022/12/08 05:31:45;;;;;;;37.47;20.20;;;;;;;0.10;100.00;100301.16;5323606;33;33994;-83
2022/12/08 05:34:48;;;;;;;41.75;19.25;;;;;;;0.13;100.00;100297.47;5323943;33;35121;-83
2022/12/08 05:37:52;;;;;;;36.58;18.75;;;;;;;0.07;100.00;100297.91;5325903;33;34022;-83
2022/12/08 05:40:55;;;;;;;39.78;19.80;;;;;;;0.11;100.00;100294.91;5324265;33;33975;-83
2022/12/08 05:43:58;;;;;;;37.88;19.58;;;;;;;0.13;100.00;100278.94;5322092;33;34726;-82
2022/12/08 05:47:00;;;;;;;38.03;19.15;;;;;;;0.14;100.00;100284.09;5309176;33;34052;-82
2022/12/08 05:50:04;;;;;;;44.13;22.52;;;;;;;0.10;100.00;100277.34;5322077;33;33910;-83
2022/12/08 05:53:08;;;;;;;39.03;21.02;;;;;;;0.08;100.00;100273.97;5312964;33;34099;-82
2022/12/08 05:56:10;;;;;;;40.40;21.42;;;;;;;0.22;100.00;100276.44;5322434;33;34572;-82
2022/12/08 05:59:15;;;;;;;40.90;20.85;;;;;;;0.22;100.00;100275.59;5320817;33;33799;-82
2022/12/08 06:02:17;;;;;;;41.03;21.92;;;;;;;0.19;100.00;100292.53;5320221;33;34728;-83
2022/12/08 06:05:21;;;;;;;37.75;19.33;;;;;;;0.15;100.00;100291.09;5324057;33;33994;-83
2022/12/08 06:08:23;;;;;;;43.25;20.10;;;;;;;0.09;100.00;100295.97;5308675;33;33768;-83
2022/12/08 06:11:29;;;;;;;45.05;20.80;;;;;;;0.05;100.00;100292.72;5307131;33;33983;-83
2022/12/08 06:14:31;;;;;;;38.33;19.35;;;;;;;0.12;100.00;100296.62;5295194;33;33580;-83
2022/12/08 06:17:34;;;;;;;35.45;19.45;;;;;;;0.19;100.00;100300.50;5291202;33;33717;-83
2022/12/08 06:20:40;;;;;;;36.08;17.95;;;;;;;0.15;100.00;100303.50;5296304;33;34068;-87
2022/12/08 06:23:43;;;;;;;38.38;20.33;;;;;;;0.19;100.00;100311.06;5302530;33;34022;-87
2022/12/08 06:26:46;;;;;;;39.78;19.35;;;;;;;0.18;100.00;100308.56;5314825;33;33683;-87
2022/12/08 06:29:48;;;;;;;38.67;20.00;;;;;;;0.26;100.00;100314.09;5315280;33;34972;-87
2022/12/08 06:32:51;;;;;;;39.53;19.73;;;;;;;0.28;100.00;100306.91;5318399;33;34317;-84
2022/12/08 06:36:04;;;;;;;37.08;19.30;;;;;;;0.32;100.00;100307.53;5312832;33;34635;-84
2022/12/08 06:39:08;;;;;;;36.63;17.98;;;;;;;0.34;100.00;100321.50;5310245;33;34021;-82
2022/12/08 06:45:32;;;;;;;37.38;18.80;;;;;;;0.40;100.00;100310.44;5322817;33;34468;-82
2022/12/08 06:48:35;;;;;;;35.63;18.80;;;;;;;0.52;100.00;100314.81;5291789;33;32573;-83
2022/12/08 06:51:38;;;;;;;39.85;19.42;;;;;;;0.50;100.00;100310.59;5312526;33;33771;-82
2022/12/08 06:54:41;;;;;;;33.72;19.65;;;;;;;0.51;100.00;100315.78;5312646;33;33713;-82
2022/12/08 06:57:44;;;;;;;43.03;20.23;;;;;;;0.53;100.00;100316.53;5305105;33;33940;-83
2022/12/08 07:00:47;;;;;;;40.45;21.30;;;;;;;0.53;100.00;100315.69;5303425;33;136702;-83
2022/12/08 07:03:49;;;;;;;41.97;19.77;;;;;;;0.75;100.00;100313.09;5305236;33;33995;-84
2022/12/08 07:06:52;;;;;;;39.88;20.10;;;;;;;1.04;100.00;100317.97;5300980;33;33516;-83
2022/12/08 07:09:55;;;;;;;37.97;20.27;;;;;;;1.19;100.00;100314.13;5299963;33;33909;-83
2022/12/08 07:12:58;;;;;;;38.28;19.17;;;;;;;1.12;100.00;100315.59;5304050;33;34543;-83
2022/12/08 07:16:04;;;;;;;38.38;19.33;;;;;;;1.21;100.00;100317.50;5296148;33;32324;-83
2022/12/08 07:19:07;;;;;;;38.80;20.05;;;;;;;1.38;100.00;100318.03;5299389;33;34185;-83
2022/12/08 07:22:09;;;;;;;34.33;18.58;;;;;;;1.39;100.00;100309.94;5299864;33;34094;-83
2022/12/08 07:25:12;;;;;;;37.65;18.75;;;;;;;1.32;100.00;100314.03;5302823;33;34730;-82
2022/12/08 07:28:15;;;;;;;41.90;20.05;;;;;;;1.18;100.00;100309.81;5308033;33;34936;-83
2022/12/08 07:31:23;;;;;;;38.60;19.17;;;;;;;1.15;100.00;100317.16;5307582;33;34036;-83
2022/12/08 07:34:26;;;;;;;36.70;19.70;;;;;;;1.16;100.00;100316.19;5310775;33;34699;-83
2022/12/08 07:37:33;;;;;;;38.30;19.67;;;;;;;1.18;100.00;100319.56;5310506;33;34855;-84
2022/12/08 07:40:40;;;;;;;36.50;18.00;;;;;;;1.31;100.00;100307.03;5310137;33;33723;-84
2022/12/08 07:43:43;;;;;;;36.63;17.85;;;;;;;1.42;100.00;100307.03;5294509;33;32564;-83
2022/12/08 07:46:46;;;;;;;39.53;18.98;;;;;;;1.45;100.00;100306.78;5307447;33;35194;-83
2022/12/08 07:49:49;;;;;;;34.28;18.95;;;;;;;1.40;100.00;100302.81;5312243;33;34956;-84
2022/12/08 07:52:51;;;;;;;34.50;18.30;;;;;;;1.47;100.00;100307.53;5312407;33;34441;-84
2022/12/08 07:55:54;;;;;;;37.00;19.80;;;;;;;1.56;100.00;100306.78;5315624;33;34026;-83
2022/12/08 07:58:57;;;;;;;45.47;22.73;;;;;;;1.65;100.00;100299.06;5308888;33;33605;-83
2022/12/08 08:02:00;;;;;;;58.87;26.77;;;;;;;1.72;100.00;100300.25;5298740;33;34541;-82
2022/12/08 08:05:23;;;;;;;53.25;26.00;;;;;;;1.72;100.00;100306.41;5290177;33;34780;-87
2022/12/08 08:08:25;;;;;;;46.20;24.90;;;;;;;1.93;100.00;100302.97;5287007;33;34299;-86
2022/12/08 08:11:28;;;;;;;45.30;23.15;;;;;;;1.99;100.00;100292.72;5305066;33;33560;-83
2022/12/08 08:14:31;;;;;;;42.45;24.77;;;;;;;2.20;100.00;100300.75;5289653;33;34195;-85
2022/12/08 08:17:35;;;;;;;48.60;24.45;;;;;;;2.25;100.00;100297.69;5302003;33;35163;-83
2022/12/08 08:20:39;;;;;;;45.50;22.58;;;;;;;2.38;100.00;100302.84;5293494;33;32942;-84
2022/12/08 08:23:44;;;;;;;41.85;21.80;;;;;;;2.61;100.00;100298.28;5288636;33;32342;-83
2022/12/08 08:26:49;;;;;;;45.83;22.52;;;;;;;2.65;100.00;100305.84;5320700;33;34469;-83
2022/12/08 08:29:52;;;;;;;40.10;22.35;;;;;;;2.76;100.00;100297.00;5304376;33;34988;-83
2022/12/08 08:32:55;;;;;;;41.00;21.73;;;;;;;2.80;100.00;100294.91;5305174;33;34417;-83
2022/12/08 08:35:58;;;;;;;40.53;20.85;;;;;;;2.91;100.00;100292.19;5288009;33;32618;-83
2022/12/08 08:39:02;;;;;;;39.15;20.83;;;;;;;3.01;100.00;100294.87;5311416;33;34669;-83
2022/12/08 08:42:05;;;;;;;38.90;20.45;;;;;;;3.08;100.00;100296.06;5293955;33;35488;-83
2022/12/08 08:45:08;;;;;;;38.13;21.90;;;;;;;3.08;100.00;100299.56;5300942;33;34223;-83
2022/12/08 08:48:11;;;;;;;43.95;22.37;;;;;;;3.02;100.00;100299.25;5288577;33;33725;-82
2022/12/08 08:51:14;;;;;;;37.88;21.60;;;;;;;3.04;100.00;100292.84;5290107;33;34317;-82
2022/12/08 08:54:17;;;;;;;35.67;21.30;;;;;;;3.16;100.00;100290.94;5291241;33;35445;-83
2022/12/08 08:57:19;;;;;;;42.53;22.20;;;;;;;3.16;100.00;100289.13;5276017;33;34734;-82
2022/12/08 09:00:28;;;;;;;42.20;22.17;;;;;;;3.24;100.00;100295.56;5296037;33;33777;-82
2022/12/08 09:03:30;;;;;;;38.75;21.75;;;;;;;3.33;100.00;100292.13;5298883;33;33964;-83
2022/12/08 09:06:33;;;;;;;50.95;23.52;;;;;;;3.50;100.00;100285.31;5296473;33;33974;-81
2022/12/08 09:09:37;;;;;;;39.92;23.23;;;;;;;3.57;100.00;100273.19;5302820;33;34083;-85
2022/12/08 09:12:40;;;;;;;41.03;20.23;;;;;;;3.69;100.00;100276.56;5311754;33;34278;-83
2022/12/08 09:15:42;;;;;;;38.47;19.95;;;;;;;3.77;100.00;100285.56;5320373;33;34688;-82
2022/12/08 09:18:48;;;;;;;40.03;20.58;;;;;;;3.62;100.00;100284.25;5291105;33;32847;-82
2022/12/08 09:21:51;;;;;;;37.40;21.45;;;;;;;3.66;100.00;100287.47;5305876;33;34200;-83
2022/12/08 09:24:53;;;;;;;38.47;20.88;;;;;;;3.64;100.00;100264.50;5303362;33;34304;-83
2022/12/08 09:27:56;;;;;;;33.17;21.60;;;;;;;3.57;100.00;100254.56;5302422;33;33409;-83
2022/12/08 09:31:00;;;;;;;39.22;20.65;;;;;;;3.47;100.00;100257.16;5300958;33;34417;-84
2022/12/08 09:34:04;;;;;;;35.22;20.88;;;;;;;3.48;100.00;100263.31;5304597;33;30944;-84
2022/12/08 09:37:06;;;;;;;37.47;21.67;;;;;;;3.32;100.00;100270.00;5305741;33;33951;-82
2022/12/08 09:40:17;;;;;;;34.55;21.25;;;;;;;3.29;100.00;100272.09;5305021;33;35601;-83
2022/12/08 09:43:42;;;;;;;38.05;22.17;;;;;;;3.44;100.00;100264.56;5311240;33;34277;-83
2022/12/08 09:46:47;;;;;;;35.65;20.80;;;;;;;3.38;100.00;100258.81;5300012;33;33871;-85
2022/12/08 09:49:54;;;;;;;37.80;21.12;;;;;;;3.52;100.00;100248.78;5312242;33;34046;-84
2022/12/08 09:52:57;;;;;;;35.40;20.37;;;;;;;3.59;100.00;100244.59;5312701;33;34550;-91
2022/12/08 09:56:05;;;;;;;36.90;21.12;;;;;;;3.69;100.00;100232.16;5304340;33;34682;-89
2022/12/08 09:59:08;;;;;;;36.95;21.60;;;;;;;3.85;100.00;100221.78;5315042;33;34136;-86
2022/12/08 10:02:27;;;;;;;36.90;19.98;;;;;;;3.95;100.00;100220.97;5312349;33;33845;-86
2022/12/08 10:05:36;;;;;;;33.72;20.58;;;;;;;3.94;100.00;100216.63;5297967;33;34355;-85
2022/12/08 10:08:46;;;;;;;31.75;17.80;;;;;;;3.99;100.00;100215.22;5300269;33;33646;-84
2022/12/08 10:12:12;;;;;;;32.95;19.30;;;;;;;4.09;100.00;100225.88;5298530;33;33955;-84
2022/12/08 10:15:56;;;;;;;35.72;19.00;;;;;;;4.31;100.00;100225.59;5294656;33;34508;-83
2022/12/08 10:19:14;;;;;;;27.77;16.55;;;;;;;4.47;100.00;100237.50;5299657;33;34749;-85
2022/12/08 10:22:23;;;;;;;35.00;19.00;;;;;;;4.36;100.00;100243.84;5304063;33;33977;-85
2022/12/08 10:25:40;;;;;;;33.00;19.73;;;;;;;4.32;100.00;100242.44;5305044;33;34076;-86
2022/12/08 10:28:43;;;;;;;32.03;18.45;;;;;;;4.34;100.00;100237.81;5303783;33;34509;-86
2022/12/08 10:31:48;;;;;;;37.22;20.52;;;;;;;4.32;100.00;100219.28;5306650;33;33935;-89
2022/12/08 10:35:01;;;;;;;33.58;19.65;;;;;;;4.52;100.00;100225.44;5309162;33;33964;-89
2022/12/08 10:38:05;;;;;;;36.83;19.55;;;;;;;4.51;100.00;100212.25;5294406;33;32816;-86
2022/12/08 10:41:10;;;;;;;31.58;20.02;;;;;;;4.55;100.00;100200.31;5296746;33;33668;-83
2022/12/08 10:44:15;;;;;;;37.33;21.27;;;;;;;4.62;100.00;100197.91;5292320;33;32323;-83
2022/12/08 10:47:21;;;;;;;38.67;20.88;;;;;;;4.59;100.00;100184.88;5302448;33;32801;-83
2022/12/08 10:50:35;;;;;;;37.83;22.60;;;;;;;4.70;100.00;100180.22;5301981;33;34183;-85
2022/12/08 10:53:44;;;;;;;40.88;23.30;;;;;;;4.84;100.00;100178.91;5303173;33;34032;-85
2022/12/08 10:56:56;;;;;;;46.28;26.17;;;;;;;4.96;100.00;100169.72;5304637;33;34497;-86
2022/12/08 10:59:59;;;;;;;37.70;21.25;;;;;;;5.12;100.00;100169.13;5309442;33;34191;-85
2022/12/08 11:03:03;;;;;;;36.20;20.00;;;;;;;5.18;100.00;100162.34;5325323;33;34998;-85
2022/12/08 11:06:24;;;;;;;30.02;19.27;;;;;;;5.16;100.00;100154.47;5322300;33;35318;-85
2022/12/08 11:09:36;;;;;;;31.20;18.58;;;;;;;5.27;100.00;100149.94;5312944;33;35168;-85
2022/12/08 11:12:42;;;;;;;32.97;18.73;;;;;;;5.05;100.00;100151.16;5320734;33;34344;-85
2022/12/08 11:15:46;;;;;;;30.77;19.50;;;;;;;4.94;100.00;100144.19;5306243;33;33932;-85
2022/12/08 11:18:55;;;;;;;32.55;17.58;;;;;;;4.97;100.00;100146.56;5313779;33;34835;-85
2022/12/08 11:21:58;;;;;;;32.75;17.80;;;;;;;4.91;99.71;100139.97;5291466;33;32270;-85
2022/12/08 11:25:16;;;;;;;32.63;18.67;;;;;;;4.72;100.00;100135.56;5306978;33;35105;-85
2022/12/08 11:28:23;;;;;;;35.50;18.70;;;;;;;4.69;100.00;100127.88;5307525;33;33554;-85
2022/12/08 11:31:48;;;;;;;33.10;19.25;;;;;;;4.69;100.00;100125.19;5278482;33;32616;-86
2022/12/08 11:35:03;;;;;;;32.50;18.08;;;;;;;4.58;100.00;100114.72;5290727;33;34717;-85
2022/12/08 11:38:12;;;;;;;27.05;16.00;;;;;;;4.62;100.00;100110.78;5305174;33;33891;-85
2022/12/08 11:41:30;;;;;;;26.25;15.55;;;;;;;4.63;99.89;100103.62;5290044;33;33657;-85
2022/12/08 11:44:49;;;;;;;26.17;15.68;;;;;;;4.60;100.00;100087.91;5299270;33;34717;-86
2022/12/08 11:48:10;;;;;;;25.15;13.70;;;;;;;4.66;99.27;100076.66;5298090;33;35166;-86
2022/12/08 11:51:28;;;;;;;24.20;12.37;;;;;;;4.58;98.68;100065.88;5298978;33;33643;-85
2022/12/08 11:54:44;;;;;;;21.33;12.23;;;;;;;4.62;96.66;100052.12;5297127;33;34316;-85
2022/12/08 11:57:47;;;;;;;23.27;12.18;;;;;;;4.57;94.97;100054.41;5299043;33;33914;-85
2022/12/08 12:00:50;;;;;;;27.02;12.27;;;;;;;4.46;97.57;100065.25;5298170;33;34338;-85
2022/12/08 12:04:12;;;;;;;18.98;10.73;;;;;;;4.57;97.81;100066.88;5294579;33;34369;-85
2022/12/08 12:07:21;;;;;;;22.27;11.25;;;;;;;4.41;93.46;100063.00;5297523;33;34229;-85
2022/12/08 12:12:11;;;;;;;21.27;12.27;;;;;;;4.53;94.08;100048.53;5297894;33;34203;-90
2022/12/08 12:15:03;;;;;;;17.67;10.93;;;;;;;4.57;96.24;100057.06;5264040;33;33661;-86
2022/12/08 12:18:45;;;;;;;28.65;11.77;;;;;;;4.55;94.12;100062.53;5273770;33;34303;-86
2022/12/08 12:21:53;;;;;;;21.55;10.70;;;;;;;4.55;93.72;100059.84;5297697;33;33776;-86
2022/12/08 12:24:56;;;;;;;21.25;11.27;;;;;;;4.52;93.12;100065.47;5284849;33;33892;-86
2022/12/08 12:28:04;;;;;;;23.10;11.75;;;;;;;4.46;93.50;100065.25;5301797;33;35097;-86
2022/12/08 12:31:17;;;;;;;19.05;10.77;;;;;;;4.36;92.84;100062.62;5300284;33;34083;-85
2022/12/08 12:34:24;;;;;;;18.90;9.82;;;;;;;4.37;94.45;100066.12;5293269;33;34677;-90
2022/12/08 12:37:40;;;;;;;25.20;9.25;;;;;;;4.30;92.18;100063.19;5290245;33;34685;-90
2022/12/08 12:40:43;;;;;;;17.75;9.75;;;;;;;4.31;92.18;100065.72;5293833;33;34721;-85
2022/12/08 12:44:11;;;;;;;18.87;9.43;;;;;;;4.21;90.97;100064.91;5292381;33;33747;-85
2022/12/08 12:47:52;;;;;;;16.42;9.32;;;;;;;4.20;89.92;100070.38;5295009;33;34369;-85
2022/12/08 12:50:58;;;;;;;22.65;9.70;;;;;;;4.23;90.50;100062.91;5311615;33;32079;-85
2022/12/08 12:54:19;;;;;;;17.65;9.30;;;;;;;3.95;90.02;100062.03;5311131;33;32250;-86
2022/12/08 12:57:32;;;;;;;16.25;8.55;;;;;;;3.83;89.33;100063.13;5293304;33;32316;-86
2022/12/08 13:00:36;;;;;;;17.65;9.38;;;;;;;3.89;90.50;100049.28;5298037;33;32390;-86
2022/12/08 13:04:03;;;;;;;16.23;9.25;;;;;;;4.02;91.77;100044.47;5298489;33;33883;-86
2022/12/08 13:07:05;;;;;;;17.75;9.15;;;;;;;4.14;90.63;100042.47;5303916;33;34748;-85
2022/12/08 13:10:08;;;;;;;16.83;8.45;;;;;;;4.13;90.52;100042.62;5307121;33;34432;-86
2022/12/08 13:13:11;;;;;;;16.45;8.85;;;;;;;4.15;91.39;100046.81;5307170;33;34323;-91
2022/12/08 13:16:21;;;;;;;30.70;15.95;;;;;;;4.08;91.94;100051.03;5306161;33;33789;-90
2022/12/08 13:19:24;;;;;;;32.50;16.95;;;;;;;4.19;98.20;100034.06;5306493;33;33803;-87
2022/12/08 13:22:45;;;;;;;33.65;18.35;;;;;;;4.22;100.00;100044.44;5308072;33;33640;-87
2022/12/08 13:25:50;;;;;;;36.75;19.20;;;;;;;4.06;100.00;100037.03;5306881;33;34030;-86
2022/12/08 13:29:00;;;;;;;32.20;18.60;;;;;;;4.06;100.00;100039.69;5307320;33;34076;-87
2022/12/08 13:32:23;;;;;;;34.58;18.23;;;;;;;4.10;100.00;100030.44;5306965;33;33688;-86
2022/12/08 13:35:27;;;;;;;34.00;17.87;;;;;;;4.00;100.00;100029.59;5310229;33;34726;-87
2022/12/08 13:38:34;;;;;;;31.02;15.32;;;;;;;3.97;100.00;100028.06;5306927;33;34723;-86
2022/12/08 13:41:42;;;;;;;20.55;12.00;;;;;;;3.94;100.00;100032.84;5293380;33;33220;-86
2022/12/08 13:44:54;;;;;;;22.02;11.93;;;;;;;3.76;100.00;100030.91;5302137;33;33654;-86
2022/12/08 13:48:27;;;;;;;26.25;12.10;;;;;;;3.76;100.00;100038.06;5307633;33;34641;-86
2022/12/08 13:51:53;;;;;;;20.70;11.38;;;;;;;3.74;99.59;100040.03;5309285;33;34668;-86
2022/12/08 13:55:20;;;;;;;22.80;11.35;;;;;;;3.74;98.27;100043.53;5310682;33;33751;-87
2022/12/08 13:58:43;;;;;;;17.83;10.48;;;;;;;3.78;97.23;100039.63;5306189;33;34032;-87
2022/12/08 14:01:48;;;;;;;20.73;11.32;;;;;;;3.73;96.42;100033.87;5306968;33;35229;-86
2022/12/08 14:04:51;;;;;;;20.67;11.18;;;;;;;3.71;96.85;100038.50;5316727;33;33632;-86
2022/12/08 14:08:34;;;;;;;22.48;11.15;;;;;;;3.64;97.31;100029.41;5307557;33;34025;-86
2022/12/08 14:12:05;;;;;;;21.92;11.85;;;;;;;3.68;96.96;100038.78;5312109;33;35120;-86
2022/12/08 14:15:13;;;;;;;24.70;11.12;;;;;;;3.71;96.61;100029.66;5330098;33;33830;-86
2022/12/08 14:18:25;;;;;;;21.95;10.23;;;;;;;3.55;96.32;100020.44;5316648;33;34705;-86
2022/12/08 14:21:27;;;;;;;19.10;10.25;;;;;;;3.61;96.02;100024.38;5325176;33;32514;-86
2022/12/08 14:24:38;;;;;;;;;;;;;;;3.69;95.12;100024.50;5322549;33;34201;-85
2022/12/08 14:27:40;;;;;;;20.58;11.07;;;;;;;3.66;95.41;100032.78;5337130;33;34505;-85
2022/12/08 14:30:43;;;;;;;23.23;12.70;;;;;;;3.71;96.76;100035.81;5317788;33;33648;-86
2022/12/08 14:33:46;;;;;;;24.55;13.43;;;;;;;3.66;100.00;100032.78;5342072;33;35249;-85
2022/12/08 14:36:55;;;;;;;31.40;15.82;;;;;;;3.67;100.00;100037.09;5311243;33;35144;-88
2022/12/08 14:40:01;;;;;;;29.45;15.13;;;;;;;3.71;100.00;100038.50;5312150;33;33878;-89
2022/12/08 14:43:11;;;;;;;29.73;14.38;;;;;;;3.54;100.00;100041.88;5336088;33;34637;-87
2022/12/08 14:46:21;;;;;;;34.80;15.30;;;;;;;3.56;100.00;100034.59;5329990;33;33488;-87
2022/12/08 14:49:33;;;;;;;29.52;15.52;;;;;;;3.35;100.00;100038.22;5319794;33;35364;-87
2022/12/08 14:52:42;;;;;;;29.27;15.85;;;;;;;3.37;100.00;100038.94;5324972;33;35476;-86
2022/12/08 14:55:47;;;;;;;28.48;14.57;;;;;;;3.45;100.00;100030.25;5314915;33;34346;-85
2022/12/08 14:59:05;;;;;;;26.95;13.98;;;;;;;3.36;100.00;100031.09;5296045;33;34455;-85
2022/12/08 15:02:24;;;;;;;27.73;14.43;;;;;;;3.29;100.00;100035.31;5306654;33;34004;-86
2022/12/08 15:05:30;;;;;;;30.77;14.20;;;;;;;3.12;100.00;100026.19;5308318;33;32441;-86
2022/12/08 15:08:50;;;;;;;25.73;13.50;;;;;;;3.17;100.00;100026.63;5296568;33;33918;-86
2022/12/08 15:12:21;;;;;;;23.52;13.70;;;;;;;3.16;100.00;100022.28;5298921;33;33891;-87
2022/12/08 15:15:30;;;;;;;27.08;14.10;;;;;;;3.12;100.00;100015.53;5291641;33;32985;-86
2022/12/08 15:18:39;;;;;;;25.00;14.13;;;;;;;3.12;100.00;100023.53;5293198;33;34527;-84
2022/12/08 15:21:44;;;;;;;26.05;14.77;;;;;;;3.16;100.00;100008.97;5301393;33;34727;-89
2022/12/08 15:24:46;;;;;;;28.30;14.65;;;;;;;3.13;100.00;100011.88;5306860;33;34171;-90
2022/12/08 15:27:52;;;;;;;29.70;14.35;;;;;;;3.08;100.00;100014.97;5279082;33;33011;-89
2022/12/08 15:30:55;;;;;;;28.65;13.50;;;;;;;3.10;100.00;100009.50;5295867;33;34010;-85
2022/12/08 15:33:58;;;;;;;25.08;12.55;;;;;;;3.11;100.00;100019.19;5307138;33;32374;-85
2022/12/08 15:37:02;;;;;;;26.20;13.32;;;;;;;3.08;100.00;100017.66;5304041;33;34126;-85
2022/12/08 15:40:16;;;;;;;24.92;13.27;;;;;;;3.08;100.00;100014.16;5313538;33;32283;-85
2022/12/08 15:43:19;;;;;;;26.23;13.52;;;;;;;3.14;100.00;100009.09;5309445;33;34500;-86
2022/12/08 15:46:22;;;;;;;25.67;13.25;;;;;;;3.21;100.00;100001.41;5318535;33;34812;-85
2022/12/08 15:49:25;;;;;;;25.15;13.00;;;;;;;3.15;100.00;99994.81;5321594;33;34149;-85
2022/12/08 15:52:28;;;;;;;25.02;13.07;;;;;;;3.02;100.00;99999.59;5310095;33;33622;-85
2022/12/08 15:55:31;;;;;;;27.52;13.98;;;;;;;3.11;100.00;99987.28;5290183;33;32419;-86
2022/12/08 15:58:41;;;;;;;25.62;13.55;;;;;;;3.05;100.00;99982.53;5300897;33;34650;-86
2022/12/08 16:02:12;;;;;;;23.85;12.35;;;;;;;3.06;100.00;99989.50;5299173;33;34503;-87
2022/12/08 16:05:31;;;;;;;26.15;14.40;;;;;;;3.07;100.00;99988.50;5293093;33;34079;-85
2022/12/08 16:08:53;;;;;;;25.17;13.88;;;;;;;3.06;100.00;99990.34;5289916;33;33740;-83
2022/12/08 16:16:09;;;;;;;25.58;13.55;;;;;;;3.10;100.00;99991.75;5307089;33;33403;-84
2022/12/08 16:19:13;;;;;;;24.17;13.27;;;;;;;3.20;100.00;100001.56;5306998;33;34661;-84
2022/12/08 16:22:18;;;;;;;27.83;13.62;;;;;;;3.10;100.00;99996.22;5307443;33;34050;-84
2022/12/08 16:25:41;;;;;;;25.73;13.77;;;;;;;3.08;100.00;99992.87;5295917;33;32777;-84
2022/12/08 16:29:05;;;;;;;26.27;13.48;;;;;;;3.01;100.00;99997.06;5311224;33;35071;-84
2022/12/08 16:32:08;;;;;;;22.83;13.30;;;;;;;3.02;100.00;99990.78;5311692;33;34265;-84
2022/12/08 16:35:13;;;;;;;24.70;13.62;;;;;;;3.02;100.00;99993.44;5310861;33;34397;-84
2022/12/08 16:38:17;;;;;;;28.60;14.95;;;;;;;2.87;100.00;100004.47;5309710;33;32879;-84
2022/12/08 16:44:41;;;;;;;22.95;12.55;;;;;;;2.89;100.00;99999.84;5293667;33;32258;-84
2022/12/08 16:47:47;;;;;;;25.40;13.05;;;;;;;2.62;100.00;99978.37;5306507;33;34851;-83
2022/12/08 16:50:50;;;;;;;30.60;12.98;;;;;;;2.53;100.00;99976.56;5293780;33;33544;-82
2022/12/08 16:53:53;;;;;;;24.70;13.45;;;;;;;2.53;100.00;99982.69;5306803;33;34373;-83
2022/12/08 16:56:56;;;;;;;25.60;13.10;;;;;;;2.50;100.00;99983.81;5307326;33;34749;-83
2022/12/08 16:59:58;;;;;;;26.83;12.80;;;;;;;2.51;100.00;99982.00;5306385;33;33774;-83
